Airfield :
LOGIN :

Register | Disclaimer

   EN    FR    IT 

 










Legend :    VFR   Marginal VFR   IFR   Intensive IFR   Very Intensive IFR
Visi :
Ceiling :
>= 8 km
>= 3000ft
5 to 8 km
1000 to 3000 ft
1500m to 5 km
500 to 1000 ft
800 to 1500m
200 to 500 ft
< 800m
< 200 ft
Symbols :   Thunderstorms  Fog  Heavy snow  Heavy precipitations  Wind > 20 kt
SIGMETs :     Misc.  Thunderstorms  Icing  Turbulence  Mountain Waves  Volcanic Ashes






- Airport Elevation : 502 ft
- IATA code : ORK


EICK - Cork

CURRENT METAR :
  • 141330Z 35021KT 9999 FEW022 06/M01 Q1007 NOSIG

EXPIRED METARs :
  • 141230Z 35022KT 9999 FEW022 06/01 Q1007 NOSIG
  • 141200Z 35022KT 9999 FEW022 05/01 Q1007 NOSIG
  • 141130Z 35020G30KT 9999 FEW022 05/01 Q1006 NOSIG
  • 141100Z 35019KT 9999 FEW018 05/01 Q1006 NOSIG

TAF TAF EICK
Valid from the 14 at 12:00 until the 15 at 12:00 UTC


141100Z 1412/1512 36018G28KT 9999 FEW018
BECMG 1500/1502 34015KT
BECMG 1506/1508 34017G28KT



MET'MAP, your aeronautical weather chart ! - Copyright ORBIFLY December 2007 - Disclaimer

ORBIFLY MET'MAP TEAM :

Programming & Development : Alexandra Zaïnal
Concept & Development : Baudouin d'Aumeries
Co-Development & Prog : Marc-Olivier Méhu
Technical & hardware support : Manuel Goepfert

Contact : metmap@orbifly.com




SOURCES & CREDITS :

   NOAA